sensor_id;sensor_type;location;lat;lon;timestamp;temperature;humidity
15967;DHT22;15175;48.154;11.534;2022-07-29T00:01:49;20.80;99.90
15967;DHT22;15175;48.154;11.534;2022-07-29T00:04:19;20.90;99.90
15967;DHT22;15175;48.154;11.534;2022-07-29T00:06:46;20.80;99.90
15967;DHT22;15175;48.154;11.534;2022-07-29T00:09:13;20.80;99.90
15967;DHT22;15175;48.154;11.534;2022-07-29T00:11:40;20.80;99.90
15967;DHT22;15175;48.154;11.534;2022-07-29T00:14:07;20.70;99.90
15967;DHT22;15175;48.154;11.534;2022-07-29T00:16:35;20.70;99.90
15967;DHT22;15175;48.154;11.534;2022-07-29T00:19:03;20.70;99.90
15967;DHT22;15175;48.154;11.534;2022-07-29T00:21:31;20.60;99.90
15967;DHT22;15175;48.154;11.534;2022-07-29T00:23:58;20.60;99.90
15967;DHT22;15175;48.154;11.534;2022-07-29T00:26:26;20.60;99.90
15967;DHT22;15175;48.154;11.534;2022-07-29T00:28:57;20.60;99.90
15967;DHT22;15175;48.154;11.534;2022-07-29T00:31:24;20.60;99.90
15967;DHT22;15175;48.154;11.534;2022-07-29T00:33:52;20.60;99.90
15967;DHT22;15175;48.154;11.534;2022-07-29T00:36:19;20.50;99.90
15967;DHT22;15175;48.154;11.534;2022-07-29T00:38:47;20.50;99.90
15967;DHT22;15175;48.154;11.534;2022-07-29T00:41:15;20.60;99.90
15967;DHT22;15175;48.154;11.534;2022-07-29T00:43:42;20.50;99.90
15967;DHT22;15175;48.154;11.534;2022-07-29T00:46:10;20.50;99.90
15967;DHT22;15175;48.154;11.534;2022-07-29T00:48:37;20.50;99.90
15967;DHT22;15175;48.154;11.534;2022-07-29T00:51:05;20.50;99.90
15967;DHT22;15175;48.154;11.534;2022-07-29T00:53:34;20.50;99.90
15967;DHT22;15175;48.154;11.534;2022-07-29T00:56:04;20.50;99.90
15967;DHT22;15175;48.154;11.534;2022-07-29T00:58:31;20.50;99.90
15967;DHT22;15175;48.154;11.534;2022-07-29T01:00:58;20.50;99.90
15967;DHT22;15175;48.154;11.534;2022-07-29T01:03:25;20.50;99.90
15967;DHT22;15175;48.154;11.534;2022-07-29T01:05:53;20.50;99.90
15967;DHT22;15175;48.154;11.534;2022-07-29T01:08:21;20.50;99.90
15967;DHT22;15175;48.154;11.534;2022-07-29T01:10:49;20.50;99.90
15967;DHT22;15175;48.154;11.534;2022-07-29T01:13:19;20.50;99.90
15967;DHT22;15175;48.154;11.534;2022-07-29T01:15:51;20.50;99.90
15967;DHT22;15175;48.154;11.534;2022-07-29T01:18:24;20.50;99.90
15967;DHT22;15175;48.154;11.534;2022-07-29T01:21:13;20.60;99.90
15967;DHT22;15175;48.154;11.534;2022-07-29T01:24:02;20.60;99.90
15967;DHT22;15175;48.154;11.534;2022-07-29T01:26:42;20.60;99.90
15967;DHT22;15175;48.154;11.534;2022-07-29T01:29:16;20.70;99.90
15967;DHT22;15175;48.154;11.534;2022-07-29T01:31:48;20.70;99.90
15967;DHT22;15175;48.154;11.534;2022-07-29T01:34:21;20.70;99.90
15967;DHT22;15175;48.154;11.534;2022-07-29T01:36:51;20.80;99.90
15967;DHT22;15175;48.154;11.534;2022-07-29T01:39:25;20.80;99.90
15967;DHT22;15175;48.154;11.534;2022-07-29T01:41:58;20.80;99.90
15967;DHT22;15175;48.154;11.534;2022-07-29T01:44:32;20.80;99.90
15967;DHT22;15175;48.154;11.534;2022-07-29T01:47:07;20.80;99.90
15967;DHT22;15175;48.154;11.534;2022-07-29T01:49:40;20.80;99.90
15967;DHT22;15175;48.154;11.534;2022-07-29T01:52:13;20.80;99.90
15967;DHT22;15175;48.154;11.534;2022-07-29T01:54:44;20.80;99.90
15967;DHT22;15175;48.154;11.534;2022-07-29T01:57:14;20.80;99.90
15967;DHT22;15175;48.154;11.534;2022-07-29T01:59:45;20.80;99.90
15967;DHT22;15175;48.154;11.534;2022-07-29T02:02:14;20.70;99.90
15967;DHT22;15175;48.154;11.534;2022-07-29T02:04:43;20.70;99.90
15967;DHT22;15175;48.154;11.534;2022-07-29T02:07:17;20.70;99.90
15967;DHT22;15175;48.154;11.534;2022-07-29T02:09:45;20.70;99.90
15967;DHT22;15175;48.154;11.534;2022-07-29T02:12:15;20.70;99.90
15967;DHT22;15175;48.154;11.534;2022-07-29T02:14:48;20.70;99.90
15967;DHT22;15175;48.154;11.534;2022-07-29T02:17:21;20.80;99.90
15967;DHT22;15175;48.154;11.534;2022-07-29T02:19:49;20.70;99.90
15967;DHT22;15175;48.154;11.534;2022-07-29T02:22:18;20.80;99.90
15967;DHT22;15175;48.154;11.534;2022-07-29T02:24:47;20.70;99.90
15967;DHT22;15175;48.154;11.534;2022-07-29T02:27:16;20.70;99.90
15967;DHT22;15175;48.154;11.534;2022-07-29T02:29:46;20.70;99.90
15967;DHT22;15175;48.154;11.534;2022-07-29T02:32:14;20.70;99.90
15967;DHT22;15175;48.154;11.534;2022-07-29T02:34:43;20.60;99.90
15967;DHT22;15175;48.154;11.534;2022-07-29T02:37:11;20.60;99.90
15967;DHT22;15175;48.154;11.534;2022-07-29T02:39:41;20.60;99.90
15967;DHT22;15175;48.154;11.534;2022-07-29T02:42:12;20.60;99.90
15967;DHT22;15175;48.154;11.534;2022-07-29T02:44:40;20.60;99.90
15967;DHT22;15175;48.154;11.534;2022-07-29T02:47:12;20.60;99.90
15967;DHT22;15175;48.154;11.534;2022-07-29T02:49:55;20.60;99.90
15967;DHT22;15175;48.154;11.534;2022-07-29T02:52:27;20.60;99.90
15967;DHT22;15175;48.154;11.534;2022-07-29T02:54:58;20.60;99.90
15967;DHT22;15175;48.154;11.534;2022-07-29T02:57:31;20.60;99.90
15967;DHT22;15175;48.154;11.534;2022-07-29T03:00:03;20.70;99.90
15967;DHT22;15175;48.154;11.534;2022-07-29T03:02:35;20.60;99.90
15967;DHT22;15175;48.154;11.534;2022-07-29T03:05:04;20.60;99.90
15967;DHT22;15175;48.154;11.534;2022-07-29T03:07:33;20.60;99.90
15967;DHT22;15175;48.154;11.534;2022-07-29T03:10:02;20.60;99.90
15967;DHT22;15175;48.154;11.534;2022-07-29T03:12:30;20.50;99.90
15967;DHT22;15175;48.154;11.534;2022-07-29T03:14:59;20.50;99.90
15967;DHT22;15175;48.154;11.534;2022-07-29T03:17:27;20.50;99.90
15967;DHT22;15175;48.154;11.534;2022-07-29T03:19:56;20.50;99.90
15967;DHT22;15175;48.154;11.534;2022-07-29T03:22:24;20.40;99.90
15967;DHT22;15175;48.154;11.534;2022-07-29T03:24:51;20.40;99.90
15967;DHT22;15175;48.154;11.534;2022-07-29T03:27:18;20.40;99.90
15967;DHT22;15175;48.154;11.534;2022-07-29T03:29:45;20.40;99.90
15967;DHT22;15175;48.154;11.534;2022-07-29T03:32:12;20.40;99.90
15967;DHT22;15175;48.154;11.534;2022-07-29T03:34:39;20.40;99.90
15967;DHT22;15175;48.154;11.534;2022-07-29T03:37:08;20.40;99.90
15967;DHT22;15175;48.154;11.534;2022-07-29T03:39:38;20.30;99.90
15967;DHT22;15175;48.154;11.534;2022-07-29T03:42:09;20.30;99.90
15967;DHT22;15175;48.154;11.534;2022-07-29T03:44:38;20.30;99.90
15967;DHT22;15175;48.154;11.534;2022-07-29T03:47:07;20.30;99.90
15967;DHT22;15175;48.154;11.534;2022-07-29T03:49:36;20.30;99.90
15967;DHT22;15175;48.154;11.534;2022-07-29T03:52:05;20.30;99.90
15967;DHT22;15175;48.154;11.534;2022-07-29T03:54:34;20.30;99.90
15967;DHT22;15175;48.154;11.534;2022-07-29T03:57:02;20.20;99.90
15967;DHT22;15175;48.154;11.534;2022-07-29T03:59:30;20.20;99.90
15967;DHT22;15175;48.154;11.534;2022-07-29T04:02:00;20.30;99.90
15967;DHT22;15175;48.154;11.534;2022-07-29T04:04:27;20.20;99.90
15967;DHT22;15175;48.154;11.534;2022-07-29T04:06:54;20.30;99.90
15967;DHT22;15175;48.154;11.534;2022-07-29T04:09:21;20.40;99.90
15967;DHT22;15175;48.154;11.534;2022-07-29T04:11:50;20.40;99.90
15967;DHT22;15175;48.154;11.534;2022-07-29T04:14:17;20.40;99.90
15967;DHT22;15175;48.154;11.534;2022-07-29T04:16:44;20.40;99.90
15967;DHT22;15175;48.154;11.534;2022-07-29T04:19:11;20.40;99.90
15967;DHT22;15175;48.154;11.534;2022-07-29T04:21:39;20.40;99.90
15967;DHT22;15175;48.154;11.534;2022-07-29T04:24:07;20.40;99.90
15967;DHT22;15175;48.154;11.534;2022-07-29T04:26:34;20.40;99.90
15967;DHT22;15175;48.154;11.534;2022-07-29T04:29:03;20.40;99.90
15967;DHT22;15175;48.154;11.534;2022-07-29T04:31:30;20.40;99.90
15967;DHT22;15175;48.154;11.534;2022-07-29T04:33:57;20.40;99.90
15967;DHT22;15175;48.154;11.534;2022-07-29T04:36:24;20.40;99.90
15967;DHT22;15175;48.154;11.534;2022-07-29T04:38:51;20.40;99.90
15967;DHT22;15175;48.154;11.534;2022-07-29T04:41:18;20.50;99.90
15967;DHT22;15175;48.154;11.534;2022-07-29T04:43:45;20.50;99.90
15967;DHT22;15175;48.154;11.534;2022-07-29T04:46:13;20.50;99.90
15967;DHT22;15175;48.154;11.534;2022-07-29T04:48:41;20.60;99.90
15967;DHT22;15175;48.154;11.534;2022-07-29T04:51:08;20.60;99.90
15967;DHT22;15175;48.154;11.534;2022-07-29T04:53:35;20.70;99.90
15967;DHT22;15175;48.154;11.534;2022-07-29T04:56:02;20.70;99.90
15967;DHT22;15175;48.154;11.534;2022-07-29T04:58:29;20.70;99.90
15967;DHT22;15175;48.154;11.534;2022-07-29T05:00:56;20.80;99.90
15967;DHT22;15175;48.154;11.534;2022-07-29T05:03:25;20.80;99.90
15967;DHT22;15175;48.154;11.534;2022-07-29T05:05:52;20.90;99.90
15967;DHT22;15175;48.154;11.534;2022-07-29T05:08:19;20.90;99.90
15967;DHT22;15175;48.154;11.534;2022-07-29T05:10:46;20.90;99.90
15967;DHT22;15175;48.154;11.534;2022-07-29T05:13:13;20.90;99.90
15967;DHT22;15175;48.154;11.534;2022-07-29T05:15:40;20.90;99.90
15967;DHT22;15175;48.154;11.534;2022-07-29T05:18:07;20.90;99.90
15967;DHT22;15175;48.154;11.534;2022-07-29T05:20:36;20.90;99.90
15967;DHT22;15175;48.154;11.534;2022-07-29T05:23:03;20.90;99.90
15967;DHT22;15175;48.154;11.534;2022-07-29T05:25:30;20.90;99.90
15967;DHT22;15175;48.154;11.534;2022-07-29T05:27:57;20.90;99.90
15967;DHT22;15175;48.154;11.534;2022-07-29T05:30:24;20.90;99.90
15967;DHT22;15175;48.154;11.534;2022-07-29T05:32:51;20.90;99.90
15967;DHT22;15175;48.154;11.534;2022-07-29T05:35:18;21.00;99.90
15967;DHT22;15175;48.154;11.534;2022-07-29T05:37:47;21.10;99.90
15967;DHT22;15175;48.154;11.534;2022-07-29T05:40:14;21.10;99.90
15967;DHT22;15175;48.154;11.534;2022-07-29T05:42:41;21.10;99.90
15967;DHT22;15175;48.154;11.534;2022-07-29T05:45:09;21.20;99.90
15967;DHT22;15175;48.154;11.534;2022-07-29T05:47:36;21.30;99.90
15967;DHT22;15175;48.154;11.534;2022-07-29T05:50:04;21.50;99.90
15967;DHT22;15175;48.154;11.534;2022-07-29T05:52:31;21.60;99.90
15967;DHT22;15175;48.154;11.534;2022-07-29T05:54:59;21.80;99.90
15967;DHT22;15175;48.154;11.534;2022-07-29T05:57:29;21.90;99.90
15967;DHT22;15175;48.154;11.534;2022-07-29T05:59:56;22.00;99.90
15967;DHT22;15175;48.154;11.534;2022-07-29T06:02:24;22.30;99.90
15967;DHT22;15175;48.154;11.534;2022-07-29T06:04:51;22.60;99.90
15967;DHT22;15175;48.154;11.534;2022-07-29T06:07:18;22.90;99.90
15967;DHT22;15175;48.154;11.534;2022-07-29T06:09:45;23.00;99.90
15967;DHT22;15175;48.154;11.534;2022-07-29T06:12:14;23.10;99.90
15967;DHT22;15175;48.154;11.534;2022-07-29T06:14:41;23.30;99.90
15967;DHT22;15175;48.154;11.534;2022-07-29T06:17:08;23.40;99.90
15967;DHT22;15175;48.154;11.534;2022-07-29T06:19:37;23.50;99.90
15967;DHT22;15175;48.154;11.534;2022-07-29T06:22:04;23.50;99.90
15967;DHT22;15175;48.154;11.534;2022-07-29T06:24:32;23.70;99.90
15967;DHT22;15175;48.154;11.534;2022-07-29T06:26:59;23.80;99.90
15967;DHT22;15175;48.154;11.534;2022-07-29T06:29:27;24.00;99.90
15967;DHT22;15175;48.154;11.534;2022-07-29T06:31:54;24.10;99.90
15967;DHT22;15175;48.154;11.534;2022-07-29T06:34:22;24.30;99.90
15967;DHT22;15175;48.154;11.534;2022-07-29T06:36:49;24.40;99.90
15967;DHT22;15175;48.154;11.534;2022-07-29T06:39:18;24.60;99.90
15967;DHT22;15175;48.154;11.534;2022-07-29T06:41:46;24.70;99.90
15967;DHT22;15175;48.154;11.534;2022-07-29T06:44:14;25.00;99.90
15967;DHT22;15175;48.154;11.534;2022-07-29T06:46:43;25.20;99.90
15967;DHT22;15175;48.154;11.534;2022-07-29T06:49:10;25.20;99.90
15967;DHT22;15175;48.154;11.534;2022-07-29T06:51:38;25.30;99.90
15967;DHT22;15175;48.154;11.534;2022-07-29T06:54:05;25.50;99.90
15967;DHT22;15175;48.154;11.534;2022-07-29T06:56:34;25.50;99.90
15967;DHT22;15175;48.154;11.534;2022-07-29T06:59:02;25.50;99.90
15967;DHT22;15175;48.154;11.534;2022-07-29T07:01:29;25.50;99.90
15967;DHT22;15175;48.154;11.534;2022-07-29T07:03:58;25.50;99.90
15967;DHT22;15175;48.154;11.534;2022-07-29T07:06:25;25.80;99.90
15967;DHT22;15175;48.154;11.534;2022-07-29T07:08:52;25.90;99.90
15967;DHT22;15175;48.154;11.534;2022-07-29T07:11:19;26.00;99.90
15967;DHT22;15175;48.154;11.534;2022-07-29T07:13:46;26.00;99.90
15967;DHT22;15175;48.154;11.534;2022-07-29T07:16:13;26.00;99.90
15967;DHT22;15175;48.154;11.534;2022-07-29T07:18:40;26.20;99.90
15967;DHT22;15175;48.154;11.534;2022-07-29T07:21:09;26.30;99.90
15967;DHT22;15175;48.154;11.534;2022-07-29T07:23:36;26.50;99.90
15967;DHT22;15175;48.154;11.534;2022-07-29T07:26:03;26.80;99.90
15967;DHT22;15175;48.154;11.534;2022-07-29T07:28:31;26.80;99.90
15967;DHT22;15175;48.154;11.534;2022-07-29T07:30:58;26.70;99.90
15967;DHT22;15175;48.154;11.534;2022-07-29T07:33:25;26.60;99.90
15967;DHT22;15175;48.154;11.534;2022-07-29T07:35:52;26.50;99.90
15967;DHT22;15175;48.154;11.534;2022-07-29T07:38:21;26.50;99.90
15967;DHT22;15175;48.154;11.534;2022-07-29T07:40:48;26.80;99.90
15967;DHT22;15175;48.154;11.534;2022-07-29T07:43:15;27.00;99.90
15967;DHT22;15175;48.154;11.534;2022-07-29T07:45:42;27.30;99.90
15967;DHT22;15175;48.154;11.534;2022-07-29T07:48:09;27.40;99.90
15967;DHT22;15175;48.154;11.534;2022-07-29T07:50:36;27.50;99.30
15967;DHT22;15175;48.154;11.534;2022-07-29T07:53:03;27.40;99.40
15967;DHT22;15175;48.154;11.534;2022-07-29T07:55:32;27.40;99.40
15967;DHT22;15175;48.154;11.534;2022-07-29T07:57:59;27.30;99.20
15967;DHT22;15175;48.154;11.534;2022-07-29T08:00:26;27.50;99.20
15967;DHT22;15175;48.154;11.534;2022-07-29T08:02:53;27.40;98.40
15967;DHT22;15175;48.154;11.534;2022-07-29T08:05:21;27.40;98.80
15967;DHT22;15175;48.154;11.534;2022-07-29T08:07:48;27.40;98.30
15967;DHT22;15175;48.154;11.534;2022-07-29T08:10:15;27.40;98.40
15967;DHT22;15175;48.154;11.534;2022-07-29T08:13:04;27.60;98.20
15967;DHT22;15175;48.154;11.534;2022-07-29T08:15:32;27.60;97.90
15967;DHT22;15175;48.154;11.534;2022-07-29T08:17:59;27.60;97.80
15967;DHT22;15175;48.154;11.534;2022-07-29T08:20:26;27.50;98.00
15967;DHT22;15175;48.154;11.534;2022-07-29T08:22:53;27.50;98.10
15967;DHT22;15175;48.154;11.534;2022-07-29T08:25:21;27.40;98.50
15967;DHT22;15175;48.154;11.534;2022-07-29T08:27:48;27.30;98.50
15967;DHT22;15175;48.154;11.534;2022-07-29T08:30:17;27.50;98.40
15967;DHT22;15175;48.154;11.534;2022-07-29T08:32:44;27.50;98.00
15967;DHT22;15175;48.154;11.534;2022-07-29T08:35:11;27.40;98.40
15967;DHT22;15175;48.154;11.534;2022-07-29T08:37:38;27.50;98.10
15967;DHT22;15175;48.154;11.534;2022-07-29T08:40:05;27.50;98.60
15967;DHT22;15175;48.154;11.534;2022-07-29T08:42:33;27.60;98.20
15967;DHT22;15175;48.154;11.534;2022-07-29T08:45:00;27.70;98.30
15967;DHT22;15175;48.154;11.534;2022-07-29T08:47:28;27.80;98.10
15967;DHT22;15175;48.154;11.534;2022-07-29T08:49:56;27.90;98.20
15967;DHT22;15175;48.154;11.534;2022-07-29T08:52:25;27.80;97.90
15967;DHT22;15175;48.154;11.534;2022-07-29T08:54:53;27.40;98.30
15967;DHT22;15175;48.154;11.534;2022-07-29T08:57:21;27.30;98.70
15967;DHT22;15175;48.154;11.534;2022-07-29T08:59:50;27.20;98.70
15967;DHT22;15175;48.154;11.534;2022-07-29T09:02:20;27.10;98.80
15967;DHT22;15175;48.154;11.534;2022-07-29T09:04:50;27.10;99.10
15967;DHT22;15175;48.154;11.534;2022-07-29T09:07:18;27.10;99.40
15967;DHT22;15175;48.154;11.534;2022-07-29T09:09:45;27.00;99.00
15967;DHT22;15175;48.154;11.534;2022-07-29T09:12:13;27.10;99.10
15967;DHT22;15175;48.154;11.534;2022-07-29T09:14:41;27.20;99.30
15967;DHT22;15175;48.154;11.534;2022-07-29T09:17:08;27.10;99.30
15967;DHT22;15175;48.154;11.534;2022-07-29T09:19:36;27.00;99.40
15967;DHT22;15175;48.154;11.534;2022-07-29T09:22:06;27.10;99.60
15967;DHT22;15175;48.154;11.534;2022-07-29T09:24:41;27.30;99.40
15967;DHT22;15175;48.154;11.534;2022-07-29T09:27:20;27.30;99.60
15967;DHT22;15175;48.154;11.534;2022-07-29T09:29:55;27.40;99.70
15967;DHT22;15175;48.154;11.534;2022-07-29T09:32:23;27.40;99.10
15967;DHT22;15175;48.154;11.534;2022-07-29T09:35:15;27.40;98.60
15967;DHT22;15175;48.154;11.534;2022-07-29T09:37:44;27.10;99.00
15967;DHT22;15175;48.154;11.534;2022-07-29T09:40:13;27.00;99.10
15967;DHT22;15175;48.154;11.534;2022-07-29T09:42:41;27.00;99.30
15967;DHT22;15175;48.154;11.534;2022-07-29T09:45:09;26.90;99.40
15967;DHT22;15175;48.154;11.534;2022-07-29T09:47:41;27.00;99.60
15967;DHT22;15175;48.154;11.534;2022-07-29T09:50:10;27.00;99.50
15967;DHT22;15175;48.154;11.534;2022-07-29T09:52:47;26.80;99.60
15967;DHT22;15175;48.154;11.534;2022-07-29T09:55:15;26.70;99.90
15967;DHT22;15175;48.154;11.534;2022-07-29T09:57:42;26.60;99.90
15967;DHT22;15175;48.154;11.534;2022-07-29T10:00:12;26.60;99.90
15967;DHT22;15175;48.154;11.534;2022-07-29T10:02:42;26.60;99.90
15967;DHT22;15175;48.154;11.534;2022-07-29T10:05:19;26.60;99.90
15967;DHT22;15175;48.154;11.534;2022-07-29T10:07:48;26.50;99.90
15967;DHT22;15175;48.154;11.534;2022-07-29T10:10:20;26.50;99.90
15967;DHT22;15175;48.154;11.534;2022-07-29T10:12:53;26.50;99.90
15967;DHT22;15175;48.154;11.534;2022-07-29T10:15:23;26.40;99.90
15967;DHT22;15175;48.154;11.534;2022-07-29T10:17:51;26.40;99.90
15967;DHT22;15175;48.154;11.534;2022-07-29T10:20:19;26.40;99.90
15967;DHT22;15175;48.154;11.534;2022-07-29T10:22:48;26.50;99.90
15967;DHT22;15175;48.154;11.534;2022-07-29T10:25:16;26.60;99.90
15967;DHT22;15175;48.154;11.534;2022-07-29T10:27:44;26.60;99.90
15967;DHT22;15175;48.154;11.534;2022-07-29T10:30:12;26.50;99.90
15967;DHT22;15175;48.154;11.534;2022-07-29T10:32:54;26.50;99.90
15967;DHT22;15175;48.154;11.534;2022-07-29T10:35:34;26.60;99.90
15967;DHT22;15175;48.154;11.534;2022-07-29T10:41:47;26.40;99.90
15967;DHT22;15175;48.154;11.534;2022-07-29T10:44:21;26.40;99.90
15967;DHT22;15175;48.154;11.534;2022-07-29T10:46:49;26.30;99.90
15967;DHT22;15175;48.154;11.534;2022-07-29T10:49:18;26.50;99.90
15967;DHT22;15175;48.154;11.534;2022-07-29T10:52:01;26.50;99.90
15967;DHT22;15175;48.154;11.534;2022-07-29T10:54:49;26.70;99.90
15967;DHT22;15175;48.154;11.534;2022-07-29T10:57:20;26.90;99.90
15967;DHT22;15175;48.154;11.534;2022-07-29T10:59:48;27.00;99.90
15967;DHT22;15175;48.154;11.534;2022-07-29T11:02:41;27.00;99.90
15967;DHT22;15175;48.154;11.534;2022-07-29T11:05:10;27.20;99.90
15967;DHT22;15175;48.154;11.534;2022-07-29T11:07:39;27.40;99.90
15967;DHT22;15175;48.154;11.534;2022-07-29T11:10:26;27.50;99.90
15967;DHT22;15175;48.154;11.534;2022-07-29T11:12:53;27.70;99.00
15967;DHT22;15175;48.154;11.534;2022-07-29T11:15:21;27.80;99.10
15967;DHT22;15175;48.154;11.534;2022-07-29T11:18:08;27.90;97.90
15967;DHT22;15175;48.154;11.534;2022-07-29T11:20:38;28.00;97.90
15967;DHT22;15175;48.154;11.534;2022-07-29T11:23:20;28.10;97.90
15967;DHT22;15175;48.154;11.534;2022-07-29T11:26:15;28.30;97.30
15967;DHT22;15175;48.154;11.534;2022-07-29T11:28:59;28.30;97.10
15967;DHT22;15175;48.154;11.534;2022-07-29T11:31:39;28.40;97.70
15967;DHT22;15175;48.154;11.534;2022-07-29T11:34:18;28.40;96.80
15967;DHT22;15175;48.154;11.534;2022-07-29T11:37:17;28.40;96.20
15967;DHT22;15175;48.154;11.534;2022-07-29T11:39:46;28.50;96.00
15967;DHT22;15175;48.154;11.534;2022-07-29T11:42:44;28.50;96.00
15967;DHT22;15175;48.154;11.534;2022-07-29T11:45:25;28.60;96.10
15967;DHT22;15175;48.154;11.534;2022-07-29T11:47:58;28.50;95.50
15967;DHT22;15175;48.154;11.534;2022-07-29T11:50:34;28.40;94.90
15967;DHT22;15175;48.154;11.534;2022-07-29T11:53:05;28.20;94.30
15967;DHT22;15175;48.154;11.534;2022-07-29T11:55:37;28.10;94.30
15967;DHT22;15175;48.154;11.534;2022-07-29T11:58:06;27.90;95.10
15967;DHT22;15175;48.154;11.534;2022-07-29T12:00:37;27.90;95.20
15967;DHT22;15175;48.154;11.534;2022-07-29T12:03:07;28.00;95.50
15967;DHT22;15175;48.154;11.534;2022-07-29T12:05:36;28.00;95.70
15967;DHT22;15175;48.154;11.534;2022-07-29T12:08:05;28.00;95.70
15967;DHT22;15175;48.154;11.534;2022-07-29T12:10:33;28.00;95.50
15967;DHT22;15175;48.154;11.534;2022-07-29T12:13:00;27.90;95.90
15967;DHT22;15175;48.154;11.534;2022-07-29T12:15:29;27.80;96.00
15967;DHT22;15175;48.154;11.534;2022-07-29T12:17:56;27.70;96.30
15967;DHT22;15175;48.154;11.534;2022-07-29T12:20:25;27.70;96.70
15967;DHT22;15175;48.154;11.534;2022-07-29T12:22:52;27.80;96.40
15967;DHT22;15175;48.154;11.534;2022-07-29T12:25:21;27.80;96.30
15967;DHT22;15175;48.154;11.534;2022-07-29T12:27:58;27.80;96.40
15967;DHT22;15175;48.154;11.534;2022-07-29T12:30:37;27.90;96.10
15967;DHT22;15175;48.154;11.534;2022-07-29T12:33:16;27.90;96.50
15967;DHT22;15175;48.154;11.534;2022-07-29T12:35:46;28.00;96.20
15967;DHT22;15175;48.154;11.534;2022-07-29T12:38:14;28.00;96.30
15967;DHT22;15175;48.154;11.534;2022-07-29T12:40:42;27.90;96.50
15967;DHT22;15175;48.154;11.534;2022-07-29T12:43:12;27.90;96.70
15967;DHT22;15175;48.154;11.534;2022-07-29T12:45:43;28.00;96.30
15967;DHT22;15175;48.154;11.534;2022-07-29T12:48:10;28.00;95.90
15967;DHT22;15175;48.154;11.534;2022-07-29T12:50:53;27.90;96.20
15967;DHT22;15175;48.154;11.534;2022-07-29T12:53:20;27.90;95.80
15967;DHT22;15175;48.154;11.534;2022-07-29T12:55:49;27.90;96.00
15967;DHT22;15175;48.154;11.534;2022-07-29T12:58:31;27.90;95.90
15967;DHT22;15175;48.154;11.534;2022-07-29T13:01:01;27.90;95.50
15967;DHT22;15175;48.154;11.534;2022-07-29T13:03:29;27.90;95.40
15967;DHT22;15175;48.154;11.534;2022-07-29T13:06:27;27.80;95.10
15967;DHT22;15175;48.154;11.534;2022-07-29T13:08:59;27.70;95.40
15967;DHT22;15175;48.154;11.534;2022-07-29T13:11:30;27.60;95.50
15967;DHT22;15175;48.154;11.534;2022-07-29T13:13:57;27.40;95.50
15967;DHT22;15175;48.154;11.534;2022-07-29T13:16:26;27.30;95.90
15967;DHT22;15175;48.154;11.534;2022-07-29T13:19:04;27.30;96.10
15967;DHT22;15175;48.154;11.534;2022-07-29T13:21:32;27.20;96.30
15967;DHT22;15175;48.154;11.534;2022-07-29T13:23:59;27.00;96.60
15967;DHT22;15175;48.154;11.534;2022-07-29T13:26:26;26.90;97.00
15967;DHT22;15175;48.154;11.534;2022-07-29T13:28:53;26.80;97.20
15967;DHT22;15175;48.154;11.534;2022-07-29T13:31:20;26.80;97.40
15967;DHT22;15175;48.154;11.534;2022-07-29T13:33:50;26.70;97.60
15967;DHT22;15175;48.154;11.534;2022-07-29T13:36:17;26.60;97.90
15967;DHT22;15175;48.154;11.534;2022-07-29T13:38:44;26.50;98.10
15967;DHT22;15175;48.154;11.534;2022-07-29T13:41:11;26.50;98.10
15967;DHT22;15175;48.154;11.534;2022-07-29T13:43:38;26.40;98.10
15967;DHT22;15175;48.154;11.534;2022-07-29T13:46:05;26.50;98.40
15967;DHT22;15175;48.154;11.534;2022-07-29T13:48:32;26.40;98.40
15967;DHT22;15175;48.154;11.534;2022-07-29T13:51:01;26.40;98.50
15967;DHT22;15175;48.154;11.534;2022-07-29T13:53:28;26.50;98.30
15967;DHT22;15175;48.154;11.534;2022-07-29T13:55:55;26.40;98.50
15967;DHT22;15175;48.154;11.534;2022-07-29T13:58:22;26.40;99.10
15967;DHT22;15175;48.154;11.534;2022-07-29T14:00:49;26.40;99.00
15967;DHT22;15175;48.154;11.534;2022-07-29T14:03:16;26.40;98.90
15967;DHT22;15175;48.154;11.534;2022-07-29T14:05:44;26.40;98.30
15967;DHT22;15175;48.154;11.534;2022-07-29T14:08:12;26.50;97.60
15967;DHT22;15175;48.154;11.534;2022-07-29T14:10:39;26.50;97.40
15967;DHT22;15175;48.154;11.534;2022-07-29T14:13:06;26.40;97.50
15967;DHT22;15175;48.154;11.534;2022-07-29T14:15:33;26.30;97.00
15967;DHT22;15175;48.154;11.534;2022-07-29T14:18:01;26.30;97.20
15967;DHT22;15175;48.154;11.534;2022-07-29T14:20:28;26.30;97.20
15967;DHT22;15175;48.154;11.534;2022-07-29T14:22:56;26.30;97.60
15967;DHT22;15175;48.154;11.534;2022-07-29T14:25:25;26.40;97.60
15967;DHT22;15175;48.154;11.534;2022-07-29T14:27:52;26.40;97.40
15967;DHT22;15175;48.154;11.534;2022-07-29T14:30:20;26.30;97.50
15967;DHT22;15175;48.154;11.534;2022-07-29T14:32:47;26.30;97.60
15967;DHT22;15175;48.154;11.534;2022-07-29T14:35:14;26.30;97.40
15967;DHT22;15175;48.154;11.534;2022-07-29T14:37:42;26.30;97.60
15967;DHT22;15175;48.154;11.534;2022-07-29T14:40:09;26.20;97.80
15967;DHT22;15175;48.154;11.534;2022-07-29T14:42:39;26.20;98.20
15967;DHT22;15175;48.154;11.534;2022-07-29T14:45:08;26.30;98.10
15967;DHT22;15175;48.154;11.534;2022-07-29T14:47:35;26.30;98.20
15967;DHT22;15175;48.154;11.534;2022-07-29T14:50:03;26.20;98.20
15967;DHT22;15175;48.154;11.534;2022-07-29T14:52:30;26.20;98.60
15967;DHT22;15175;48.154;11.534;2022-07-29T14:54:57;26.20;98.70
15967;DHT22;15175;48.154;11.534;2022-07-29T14:57:25;26.20;98.90
15967;DHT22;15175;48.154;11.534;2022-07-29T14:59:53;26.10;99.00
15967;DHT22;15175;48.154;11.534;2022-07-29T15:02:20;26.10;99.10
15967;DHT22;15175;48.154;11.534;2022-07-29T15:04:47;26.00;99.40
15967;DHT22;15175;48.154;11.534;2022-07-29T15:07:15;26.00;99.40
15967;DHT22;15175;48.154;11.534;2022-07-29T15:09:42;26.00;99.50
15967;DHT22;15175;48.154;11.534;2022-07-29T15:12:11;26.10;99.40
15967;DHT22;15175;48.154;11.534;2022-07-29T15:14:38;26.20;99.30
15967;DHT22;15175;48.154;11.534;2022-07-29T15:17:06;26.20;99.30
15967;DHT22;15175;48.154;11.534;2022-07-29T15:19:33;26.20;99.40
15967;DHT22;15175;48.154;11.534;2022-07-29T15:22:00;26.00;99.60
15967;DHT22;15175;48.154;11.534;2022-07-29T15:24:27;26.00;99.90
15967;DHT22;15175;48.154;11.534;2022-07-29T15:26:54;25.90;99.90
15967;DHT22;15175;48.154;11.534;2022-07-29T15:29:22;25.90;99.90
15967;DHT22;15175;48.154;11.534;2022-07-29T15:31:49;25.90;99.90
15967;DHT22;15175;48.154;11.534;2022-07-29T15:34:17;25.90;99.90